TOP > 外国特許検索

外国特許検索

Display results per page Option
Patent state
Country

Clear

Hits 4690 results

No. Application number
Gazette No
Country
Title
Release Date
Update Date
Information Provider
4401 0914592 2459802 英国 Memory management method and information processing device implementing the method 2011/02/03 2012/01/11 早稲田大学
4402 200880005264 101617197 中華人民共和国 Road feature measurement apparatus, feature identification apparatus, road feature measuring method, road feature measuring program, measurement apparatus, measuring method, measuring program, measure 2011/02/03 2012/04/25 早稲田大学
4403 2008JP052509 WO 2008/099915 世界知的所有権機関(WIPO) ROAD/FEATURE MEASURING DEVICE, FEATURE IDENTIFYING DEVICE, ROAD/FEATURE MEASURING METHOD, ROAD/FEATURE MEASURING PROGRAM, MEASURING DEVICE, MEASURING METHOD, MEASURING PROGRAM, MEASURED POSITION DATA, MEASURING TERMINAL, MEASURING SERVER DEVICE, DRAWING DEVICE, DRAWING METHOD, DRAWING PROGRAM, AND DRAWING DATA 2011/02/03 2011/02/16 早稲田大学
4404 2005215316 2005215316 オーストラリア Apparent chemical species measuring method and measuring system 2011/02/03 2011/03/23 早稲田大学
4405 2005JP002821 WO 2005/079661 世界知的所有権機関(WIPO) APPARENT CHEMICAL SPECIES MEASURING METHOD AND MEASURING SYSTEM 2011/02/03 2011/02/16 早稲田大学
4406 2006JP310372 WO 2006/134759 世界知的所有権機関(WIPO) SENTENCE EVALUATING DEVICE AND SENTENCE EVALUATING PROGRAM 2011/02/03 2011/02/16 早稲田大学
4407 2008JP001394 WO 2008/149542 世界知的所有権機関(WIPO) METHOD FOR PRODUCTION OF DHA-CONTAINING PHOSPHOLIPID THROUGH MICROBIAL FERMENTATION 新技術説明会 2011/01/20 2011/02/16 北海道大学
4408 2010JP001867 WO 2010/106794 世界知的所有権機関(WIPO) SYSTEM FOR ANALYZING EXPRESSION PROFILE AND PROGRAM THEREOF 2011/01/20 2011/02/16 明治大学
4409 2008JP069306 WO 2009/057517 世界知的所有権機関(WIPO) INTERPOLATION PROCESSING METHOD AND INTERPOLATION PROCESSOR 2011/01/17 2011/01/19 横浜国立大学
4410 2009JP053252 WO 2009/142037 世界知的所有権機関(WIPO) APPROXIMATION PROCESSING METHOD AND APPROXIMATION PROCESSING DEVICE 2011/01/17 2011/01/19 横浜国立大学
4411 2008JP061243 WO 2008/156139 世界知的所有権機関(WIPO) PROTEIN ANALYSIS METHOD USING ISOTOPE COMPOUND AS LABEL 新技術説明会 2011/01/13 2011/01/19 福井大学
4412 2008JP072942 WO 2009/078423 世界知的所有権機関(WIPO) FUSED TRICYCLIC COMPOUND HAVING ALDOSE REDUCTASE INHIBITORY ACTIVITY 新技術説明会 2011/01/13 2011/01/19 富山大学
4413 2008JP073175 WO 2009081854 世界知的所有権機関(WIPO) BIOMARKER FOR ALLERGIC DISEASE AND UTILIZATION OF THE SAME 2011/01/13 2019/04/22 富山大学
4414 2008JP055132 WO 2008/114829 世界知的所有権機関(WIPO) ENCRYPTION DEVICE, DECRYPTION DEVICE, ENCRYPTION PROGRAM, DECRYPTION PROGRAM, AND RECORDING MEDIUM 2011/01/13 2011/01/19 東京電機大学
4415 2008JP059681 WO 2008/149712 世界知的所有権機関(WIPO) DISTORTION INSPECTING APPARATUS AND DISTORTION INSPECTING METHOD 新技術説明会 2011/01/12 2011/01/19 宮崎大学
4416 2009JP061665 WO 2009/154308 世界知的所有権機関(WIPO) ELECTRODE 2011/01/12 2011/05/23 宮崎大学
4417 2008JP002335 WO 2009/028186 世界知的所有権機関(WIPO) ELECTROMAGNETIC FIELD SPACE DISTRIBUTION VISUALIZING DEVICE, ELECTROMAGNETIC FIELD SPACE DISTRIBUTION VISUALIZING METHOD, AND PROGRAM THEREOF 新技術説明会 2011/01/12 2011/01/19 金沢大TLO
4418 2009JP003429 WO 2010/013408 世界知的所有権機関(WIPO) RADIO FIELD STRENGTH MEASURING DEVICE AND RADIO FIELD STRENGTH MEASURING SYSTEM 新技術説明会 2011/01/12 2011/01/19 金沢大TLO
4419 2010JP067530 WO 2011/043369 世界知的所有権機関(WIPO) WATER-SOLUBLE PORPHYRIN AND PROCESS FOR PRODUCTION THEREOF 新技術説明会 2011/01/06 2011/04/21 宮崎大学
4420 2008JP073572 WO 2009/087908 世界知的所有権機関(WIPO) METHOD OF RECYCLING USEFUL METAL 新技術説明会 2011/01/05 2011/01/19 芝浦工業大学
4421 2009JP053140 WO 2009/107575 世界知的所有権機関(WIPO) DEVICE FOR NONDESTRUCTIVELY EXAMINING COMPOSITE STRUCTURE AND NONDESTRUCTIVE EXAMINATION METHOD 新技術説明会 2010/12/15 2010/12/15 高エネルギー加速器研究機構
4422 2009JP067046 WO 2010/038785 世界知的所有権機関(WIPO) PHOTOSENSOR AND METHOD FOR MANUFACTURING THE PHOTOSENSOR 新技術説明会 2010/12/15 2010/12/15 岡山大学
4423 2009JP067047 WO 2010/038786 世界知的所有権機関(WIPO) MEMORY ELEMENT, METHOD FOR MANUFACTURING THE MEMORY ELEMENT, AND MEMORY DEVICE COMPRISING MEMORY ELEMENT 新技術説明会 2010/12/15 2010/12/15 岡山大学
4424 2009JP067048 WO 2010/038787 世界知的所有権機関(WIPO) PHOTOELECTRIC CONVERSION ELEMENT AND METHOD FOR MANUFACTURING THE PHOTOELECTRIC CONVERSION ELEMENT 新技術説明会 2010/12/15 2010/12/15 岡山大学
4425 2009JP067049 WO 2010/038788 世界知的所有権機関(WIPO) CURRENT CONTROL ELEMENT AND METHOD FOR MANUFACTURING THE CURRENT CONTROL ELEMENT 新技術説明会 2010/12/15 2010/12/15 岡山大学
4426 2009JP005235 WO 2010/041449 世界知的所有権機関(WIPO) ANTI-ALLERGIC AGENT COMPRISING RXR AGONIST AS ACTIVE INGREDIENT 2010/12/15 2010/12/15 岡山大学
4427 2009JP004465 WO 2010/050109 世界知的所有権機関(WIPO) KIT FOR PRODUCING DOUBLE-STRANDED RNA WITH LACTIC ACID BACTERIUM, AND USE THEREOF 2010/12/15 2010/12/27 岡山大学
4428 2009JP005718 WO 2010/050211 世界知的所有権機関(WIPO) COMPOSITION FOR LOCAL ANESTHESIA 2010/12/15 2010/12/15 岡山大学
4429 2009JP069224 WO 2010/055867 世界知的所有権機関(WIPO) METHOD FOR DETERMINING THERAPEUTIC EFFECT OF REPERFUSION THERAPY 新技術説明会 2010/12/15 2010/12/15 岡山大学
4430 2010JP051087 WO 2010/087383 世界知的所有権機関(WIPO) ION SENSOR 2010/12/15 2010/12/15 岡山大学
4431 2010JP053626 WO 2010/101240 世界知的所有権機関(WIPO) BIODEGRADABLE POROUS HOLLOW PARTICLE, AND PRODUCTION METHOD AND APPLICATION THEREOF 2010/12/15 2010/12/15 岡山大学
4432 2008JP065042 WO 2009/028424 世界知的所有権機関(WIPO) ELECTRONIC ELEMENT AND ELECTRICAL CONDUCTIVITY CONTROL METHOD 新技術説明会 2010/12/14 2010/12/15 岡山大学
4433 2008JP065045 WO 2009/028426 世界知的所有権機関(WIPO) ELECTRONIC ELEMENT AND ELECTROCONDUCTIVITY CONTROL METHOD 新技術説明会 2010/12/14 2010/12/15 岡山大学
4434 2008JP065724 WO 2009/031517 世界知的所有権機関(WIPO) SURFACE TREATING METHOD AND DEVICE THEREOF 新技術説明会 2010/12/14 2010/12/15 岡山大学
4435 2008JP063002 WO 2009034779 世界知的所有権機関(WIPO) CANCER DIAGNOSIS KIT AND CANCER DIAGNOSIS METHOD 2010/12/14 2019/04/24 岡山大学
4436 2008JP069004 WO 2009054361 世界知的所有権機関(WIPO) HAIR GROWTH PROMOTER 2010/12/14 2019/04/24 岡山大学
4437 2009JP051034 WO 2009/093675 世界知的所有権機関(WIPO) METHOD AND BACTERIUM FOR PROMOTING THE GROWTH OF RACOMITRIUM CANESCENS AND SEED PLANTS 2010/12/14 2010/12/15 岡山大学
4438 2009JP051907 WO 2009/099112 世界知的所有権機関(WIPO) NOVEL DNA FRAGMENT AND USE THEREOF 新技術説明会 2010/12/14 2010/12/27 岡山大学
4439 2009JP055208 WO 2009116546 世界知的所有権機関(WIPO) EXCITATORY CHEMICAL MEDIATOR AND METHOD FOR SCREENING THEREOF 新技術説明会 2010/12/14 2019/04/24 岡山大学
4440 2009JP055816 WO 2009/119578 世界知的所有権機関(WIPO) MICRO-DROPLET DISPENSING DEVICE 2010/12/14 2010/12/15 岡山大学
4441 2009JP056428 WO 2009/119874 世界知的所有権機関(WIPO) PHARMACEUTICAL COMPOSITION FOR TREATING OR PREVENTING CANCER WHICH INDUCES DENDRITIC CELL-LIKE DIFFERENTIATION OF MONOCYTES TO INCREASE ANTICANCER IMMUNE ACTIVITY 2010/12/14 2011/05/23 岡山大学
4442 2009JP053256 WO 2009/125626 世界知的所有権機関(WIPO) MESOTHELIOMA-SPECIFIC PROMOTER AND USE THEREOF 2010/12/14 2010/12/15 岡山大学
4443 2009JP059045 WO 2009139459 世界知的所有権機関(WIPO) METHOD FOR PREVENTION AND TREATMENT OF METABOLIC SYNDROME THROUGH THE INHIBITION OF PSGL-1 2010/12/14 2019/04/24 岡山大学
4444 2009JP058996 WO 2009/145067 世界知的所有権機関(WIPO) THERAPEUTIC AGENT FOR PAIN AND USE THEREOF 新技術説明会 2010/12/14 2010/12/15 岡山大学
4445 2009JP059982 WO 2009/148017 世界知的所有権機関(WIPO) ARTIFICIAL TERMITE EGG HAVING .BETA.-GLUCOSIDASE AS TERMITE EGG RECOGNITION PHEROMONE, AND CONTROL OF TERMITES USING THE SAME 2010/12/14 2010/12/15 岡山大学
4446 2009JP061698 WO 2010/001824 世界知的所有権機関(WIPO) NOVEL ANTISCHISTOSOMAL AGENT 2010/12/14 2010/12/15 岡山大学
4447 2009JP065264 WO 2010/026966 世界知的所有権機関(WIPO) NOVEL ANTI-HCV AGENT AND USE THEREOF 2010/12/14 2010/12/15 岡山大学
4448 2009JP066652 WO 2010/041560 世界知的所有権機関(WIPO) QUANTITATIVE EVALUATION METHOD AND DEVICE FOR ZETA POTENTIAL, pH OR TEMPERATURE DISTRIBUTION AT WALL SURFACE, AND QUANTITATIVE VISUALIZATION METHOD AND DEVICE FOR SURFACE MODIFICATION 2010/12/09 2010/12/16 慶應義塾大学
4449 2009JP005625 WO 2010/050167 世界知的所有権機関(WIPO) COMPOSITION FOR INDUCING TH2 CELL, THERAPEUTIC COMPOSITION FOR TH2-TYPE DISEASE, AND USE OF SAME 新技術説明会 2010/12/08 2010/12/27 兵庫医科大学
4450 06514505 7868564 アメリカ合衆国 H-mode drift-tube linac and design method therefor 2010/12/02 2020/10/23 放射線医学総合研究所
4451 2010JP006114 WO 2011/045937 世界知的所有権機関(WIPO) METHOD AND MARKER FOR DETERMINATION OF DEGREE OF RISK OF ONSET OF HIGH-FUNCTIONING AUTISM 2010/11/30 2011/05/24 浜松医科大学
4452 45080307 8594404 アメリカ合衆国 PET scanner and image reconstruction method thereof 2010/11/29 2018/07/19 放射線医学総合研究所
4453 65869906 7671339 アメリカ合衆国 Positron emission tomography scanner and radiation detector 2010/11/29 2018/07/19 放射線医学総合研究所
4454 2009JP055702 WO 2010/109586 世界知的所有権機関(WIPO) CONCEALMENT-TYPE RADIOTHERAPY/IMAGING COMBINED DEVICE 2010/11/29 2010/12/16 放射線医学総合研究所
4455 2009JP055701 WO 2010/109585 世界知的所有権機関(WIPO) DETECTOR-ROTATION-TYPE RADIOTHERAPY/IMAGING COMBINED DEVICE 2010/11/29 2010/12/16 放射線医学総合研究所
4456 2009JP053928 WO 2010/100720 世界知的所有権機関(WIPO) REAGENT FOR MEASUREMENT OF CHOLINESTERASE ACTIVITY 2010/11/29 2010/12/16 放射線医学総合研究所
4457 2008JP068920 WO 2010/041349 世界知的所有権機関(WIPO) MARKER FOR ESTIMATING THE PROGNOSIS OF CERVICAL ADENOCARCINOMA OR FOR ESTIMATING THE PROGNOSIS OF CERVICAL CANCER 2010/11/29 2010/12/16 放射線医学総合研究所
4458 2008JP068279 WO 2010/041313 世界知的所有権機関(WIPO) DOI TYPE RADIATION DETECTOR 2010/11/29 2010/12/16 放射線医学総合研究所
4459 2008JP063862 WO 2010/013346 世界知的所有権機関(WIPO) RADIATION THERAPY/PET COMBINED DEVICE 2010/11/29 2010/12/16 放射線医学総合研究所
4460 2009JP061662 WO 2009/157526 世界知的所有権機関(WIPO) GAMMA-RAY DETECTOR, RADIATION DIAGNOSTIC DEVICE, TOMOGRAPHIC DEVICE, AND ANALYSIS METHOD THEREFOR 2010/11/29 2010/12/16 放射線医学総合研究所
4461 2008JP063861 WO 2010/013345 世界知的所有権機関(WIPO) DETECTOR-SHIFT RADIATION THERAPY/PET COMBINED APPARATUS 2010/11/29 2010/12/16 放射線医学総合研究所
4462 2009JP054780 WO 2010/103644 世界知的所有権機関(WIPO) OPEN PET-MRI COMPLEX MACHINE 2010/11/29 2010/12/16 放射線医学総合研究所
4463 2006JP304093 WO 2006/095648 世界知的所有権機関(WIPO) THREE-DIMENSIONAL PHOTONIC CRYSTAL AND METHOD FOR PRODUCING THE SAME 2010/11/25 2010/12/15 京都大学
4464 2008JP003523 WO 2009/069313 世界知的所有権機関(WIPO) SYSTEM FOR DELIVERING NUCLEIC ACIDS FOR SUPPRESSING TARGET GENE EXPRESSION BY UTILIZING ENDOGENOUS CHYLOMICRON 2010/11/10 2011/03/18 東京医科歯科大学
4465 36337106 7744895 アメリカ合衆国 Methods of treating allergies using TGF-β1 and allergens 2010/09/30 2018/07/19 山梨大学
4466 2010JP002865 WO 2010/122787 世界知的所有権機関(WIPO) PERITONEUM-PROTECTING AGENT AND METHOD FOR PRODUCING PERITONEUM-PROTECTING AGENT 2010/09/28 2010/12/15 岡山大学
4467 2010JP056117 WO 2010/114143 世界知的所有権機関(WIPO) SYSTEM FOR INCREASING ACTIVITY OF SPECIFIC PROMOTER, AND VECTOR CARRYING THE SYSTEM 2010/09/28 2010/12/15 岡山大学
4468 2010JP058642 WO 2010/134601 世界知的所有権機関(WIPO) PEPTIDE INDUCING XAGE-1B-SPECIFIC IMMUNE REACTION AND UTILIZATION OF SAME 2010/09/28 2010/12/15 岡山大学
4469 2010JP059889 WO 2010/143700 世界知的所有権機関(WIPO) DIHYDROXYHEXENOIC ACID ESTER AND METHOD FOR PRODUCING SAME 新技術説明会 2010/09/28 2011/01/19 岡山大学
4470 2010JP060002 WO 2010/143734 世界知的所有権機関(WIPO) NITRO GROUP-CONTAINING ETHER COMPOUND AND METHOD FOR PRODUCING SAME 新技術説明会 2010/09/28 2011/01/19 岡山大学
4471 2010JP062759 WO 2011/013735 世界知的所有権機関(WIPO) NOVEL FLAVANONE DERIVATIVE 2010/09/28 2011/02/16 岡山大学
4472 2008JP072123 WO 2009/072590 世界知的所有権機関(WIPO) BRANCHED POLYALKYLENE GLYCOL DERIVATIVE, PHOTOSENSITIVE COMPOSITION, CROSSLINKED MATERIAL, AND SUBSTRATE 2010/08/31 2010/08/27 東京理科大学
4473 2008JP066384 WO 2009/035020 世界知的所有権機関(WIPO) NOVEL DIHYDRONAPHTHALENE COMPOUND AND USE THEREOF 2010/08/31 2010/08/27 東京理科大学
4474 2009JP062974 WO 2010/029810 世界知的所有権機関(WIPO) STRUCTURE OPTIMIZATION DEVICE, STRUCTURE OPTIMIZATION METHOD, AND STRUCTURE OPTIMIZATION PROGRAM 2010/07/16 2010/07/13 京都大学
4475 2009JP065694 WO 2010/027093 世界知的所有権機関(WIPO) CATALYST FOR LIVING RADICAL POLYMERIZATION 2010/07/16 2010/07/13 京都大学
4476 2009JP052115 WO 2009/136510 世界知的所有権機関(WIPO) NOVEL LIVING RADICAL POLYMERIZATION METHOD WHEREIN ALCOHOL IS USED AS CATALYST 2010/07/16 2010/07/13 京都大学
4477 2009JP070062 WO 2010/061931 世界知的所有権機関(WIPO) CYCLOBUTYL PURINE DERIVATIVE, ANGIOGENESIS PROMOTING AGENT, LUMENIZATION PROMOTING AGENT, NEUROCYTE GROWTH PROMOTING AGENT, AND DRUG 新技術説明会 実績あり 2010/07/02 2010/07/02 四国TLO
4478 2009JP059737 WO 2009/145243 世界知的所有権機関(WIPO) LIPID MEMBRANE APPLICABLE TO PHOTODYNAMIC THERAPY AND APPLICATION THEREOF 新技術説明会 2010/07/02 2010/07/01 奈良先端科学技術大学院大学
4479 2009JP069005 WO 2010/053160 世界知的所有権機関(WIPO) CONTENT SEARCH DEVICE AND CONTENT SEARCH PROGRAM 新技術説明会 2010/06/25 2010/06/23 北海道大学
4480 2008JP002956 WO 2010/044129 世界知的所有権機関(WIPO) SEMICONDUCTOR LIGHT-EMITTING ELEMENT ARRAY AND MANUFACTURING METHOD THEREOF 2010/06/25 2010/06/23 北海道大学
4481 2009JP003816 WO 2010/016278 世界知的所有権機関(WIPO) NON-DIFFUSING PLANT VIRUS VECTOR 2010/06/25 2010/06/23 北海道大学
4482 2008JP054411 WO 2008/111589 世界知的所有権機関(WIPO) METHOD FOR PRODUCTION OF PURIFIED ANTHOCYANIN 新技術説明会 2010/06/18 2010/06/15 四国TLO
4483 2006JP325817 WO 2007/074788 世界知的所有権機関(WIPO) ANTI-TUMOR AGENT AND IMMUNOSTIMULATING AGENT 新技術説明会 2010/06/18 2010/06/17 琉球大学
4484 2009JP069286 WO 2010/055887 世界知的所有権機関(WIPO) NOVEL SULFONIUM SALT, METHOD FOR PRODUCING SAME AND USE OF SAME 新技術説明会 2010/05/28 2010/05/26 佐賀大学
4485 2009JP059136 WO 2009/142175 世界知的所有権機関(WIPO) COLLECTION-AND-DELIVERY PATH SELECTING SYSTEM 2010/04/09 2010/05/21 情報・システム研究機構 国立情報学研究所
4486 2006JP301039 WO 2006/078033 世界知的所有権機関(WIPO) QUANTUM KEY DISTRIBUTION METHOD, COMMUNICATION SYSTEM, AND COMMUNICATION DEVICE 2010/04/09 2010/05/21 情報・システム研究機構 国立情報学研究所
4487 2009JP003090 WO 2010/004713 世界知的所有権機関(WIPO) NOVEL MICROORGANISM, AND PLANT DISEASE CONTROL AGENT USING THE MICROORGANISM 新技術説明会 2010/03/05 2010/05/21 山梨大学
4488 2009JP055225 WO 2009/116551 世界知的所有権機関(WIPO) BONDED MASS OF ACCUMULATED NANOPARTICLES AND METHOD OF PRODUCING THE SAME 2010/03/05 2010/05/21 山梨大学
4489 2008JP071991 WO 2009/069816 世界知的所有権機関(WIPO) IONIZATION METHOD, AND MASS-SPECTROSCOPIC METHOD AND APPARATUS UTILIZING THE IONIZATION METHOD 2010/03/05 2011/05/24 山梨大学
4490 2008JP055535 WO 2008/117792 世界知的所有権機関(WIPO) FLUORESCENT LABELED FUSED PROTEIN FOR ASSAYING ADENOSINE TRIPHOSPHATE 2010/02/26 2010/05/21 立教大学
4491 2008JP002286 WO 2009/028163 世界知的所有権機関(WIPO) FILTER AND METHOD OF FILTRATION 新技術説明会 2010/01/15 2010/05/24 九州大学
4492 87695301 6893616 アメリカ合衆国 Apparatus for converting both halogens in organic halides and organic compounds to inorganic substances 2010/01/12 2018/07/23 科学技術振興機構(JST)
4493 2006JP326357 WO 2008/023451 世界知的所有権機関(WIPO) POSITRON EMISSION TOMOGRAPHY SCANNER AND RADIATION DETECTOR 2009/12/18 2010/05/24 放射線医学総合研究所
4494 2008JP069160 WO 2009/133639 世界知的所有権機関(WIPO) METHOD, DEVICE, AND PROGRAM FOR EVALUATING PARTICLE BEAM EMITTED FROM RADIATION SOURCE, RADIATION DETECTOR EVALUATION METHOD, CALIBRATION METHOD, DEVICE, AND RADIATION SOURCE 2009/12/11 2009/12/07 放射線医学総合研究所
4495 2008JP058432 WO 2009/133628 世界知的所有権機関(WIPO) OPEN TYPE PET EQUIPMENT 2009/12/11 2009/12/07 放射線医学総合研究所
4496 2008JP057035 WO 2009/125480 世界知的所有権機関(WIPO) RADIATION DETECTION METHOD, DEVICE AND POSITRON-EMISSION TOMOGRAPHIC DEVICE 2009/12/11 2009/12/07 放射線医学総合研究所
4497 2008JP056451 WO 2009/122561 世界知的所有権機関(WIPO) OPEN TYPE PET DEVICE 2009/12/11 2009/12/07 放射線医学総合研究所
4498 2008JP062297 WO 2009/008412 世界知的所有権機関(WIPO) DNA CHIP FOR PREDICTION OF OCCURRENCE OF LATE ADVERSE REACTION IN URINARY ORGAN AFTER RADIATION THERAPY, AND METHOD FOR PREDICTION OF OCCURRENCE OF LATE ADVERSE REACTION IN URINARY ORGAN AFTER RADIATION THERAPY USING THE SAME 2009/12/11 2009/12/07 放射線医学総合研究所
4499 2007JP059973 WO 2008/139625 世界知的所有権機関(WIPO) GAMMA RAY DETECTOR AND METHOD OF RECONSTRUCTING GAMMA RAY 2009/12/11 2009/12/07 放射線医学総合研究所
4500 2007JP058361 WO 2008/129666 世界知的所有権機関(WIPO) PET DEVICE AND METHOD FOR RECONSTITUTING IMAGE OF THE SAME 2009/12/11 2009/12/07 放射線医学総合研究所

(45/47 page)

PAGE TOP